createdAt,value
2022-10-10T00:01:20.593Z,14.36
2022-10-10T00:03:47.607Z,14.36
2022-10-10T00:06:14.965Z,14.35
2022-10-10T00:08:42.651Z,14.34
2022-10-10T00:11:09.635Z,14.33
2022-10-10T00:13:37.139Z,14.31
2022-10-10T00:16:04.375Z,14.31
2022-10-10T00:18:31.824Z,14.29
2022-10-10T00:20:58.572Z,14.29
2022-10-10T00:23:25.506Z,14.27
2022-10-10T00:25:52.159Z,14.27
2022-10-10T00:28:19.462Z,14.26
2022-10-10T00:30:46.183Z,14.25
2022-10-10T00:33:13.118Z,14.24
2022-10-10T00:35:40.262Z,14.24
2022-10-10T00:38:07.216Z,14.23
2022-10-10T00:40:34.652Z,14.23
2022-10-10T00:43:01.499Z,14.24
2022-10-10T00:45:33.347Z,14.21
2022-10-10T00:48:05.186Z,14.21
2022-10-10T00:50:34.147Z,14.20
2022-10-10T00:53:01.015Z,14.20
2022-10-10T00:55:28.046Z,14.19
2022-10-10T00:57:54.976Z,14.18
2022-10-10T01:00:21.768Z,14.17
2022-10-10T01:02:48.932Z,14.16
2022-10-10T01:05:16.109Z,14.15
2022-10-10T01:07:43.522Z,14.14
2022-10-10T01:10:13.236Z,14.13
2022-10-10T01:13:26.117Z,14.13
2022-10-10T01:15:57.431Z,14.10
2022-10-10T01:18:35.899Z,14.08
2022-10-10T01:21:11.656Z,14.07
2022-10-10T01:24:14.590Z,14.08
2022-10-10T01:26:48.063Z,14.04
2022-10-10T01:29:41.851Z,14.03
2022-10-10T01:32:22.998Z,14.03
2022-10-10T01:35:17.472Z,14.00
2022-10-10T01:38:05.051Z,14.00
2022-10-10T01:40:52.040Z,13.98
2022-10-10T01:43:19.429Z,13.99
2022-10-10T01:45:51.207Z,13.98
2022-10-10T01:48:24.180Z,13.98
2022-10-10T01:50:59.636Z,13.96
2022-10-10T01:53:46.762Z,13.98
2022-10-10T01:56:34.941Z,13.96
2022-10-10T01:59:07.548Z,13.94
2022-10-10T02:01:44.803Z,13.92
2022-10-10T02:04:20.939Z,13.92
2022-10-10T02:06:53.027Z,13.90
2022-10-10T02:09:24.905Z,13.89
2022-10-10T02:11:51.720Z,13.89
2022-10-10T02:14:21.739Z,13.88
2022-10-10T02:16:51.239Z,13.87
2022-10-10T02:19:19.761Z,13.85
2022-10-10T02:21:57.089Z,13.84
2022-10-10T02:24:24.930Z,13.84
2022-10-10T02:27:20.550Z,13.81
2022-10-10T02:29:51.232Z,13.81
2022-10-10T02:32:29.342Z,13.80
2022-10-10T02:34:58.326Z,13.77
2022-10-10T02:37:25.297Z,13.78
2022-10-10T02:39:55.313Z,13.76
2022-10-10T02:42:22.852Z,13.76
2022-10-10T02:44:50.470Z,13.74
2022-10-10T02:47:17.283Z,13.74
2022-10-10T02:49:44.097Z,13.72
2022-10-10T02:52:13.217Z,13.71
2022-10-10T02:54:39.972Z,13.69
2022-10-10T02:57:06.764Z,13.70
2022-10-10T02:59:33.588Z,13.68
2022-10-10T03:02:00.420Z,13.69
2022-10-10T03:04:27.072Z,13.67
2022-10-10T03:06:53.810Z,13.66
2022-10-10T03:09:20.711Z,13.65
2022-10-10T03:11:47.471Z,13.64
2022-10-10T03:14:14.090Z,13.62
2022-10-10T03:16:40.822Z,13.61
2022-10-10T03:19:08.730Z,13.61
2022-10-10T03:21:36.254Z,13.58
2022-10-10T03:24:03.007Z,13.58
2022-10-10T03:26:29.743Z,13.57
2022-10-10T03:28:56.387Z,13.56
2022-10-10T03:31:23.143Z,13.54
2022-10-10T03:33:49.900Z,13.52
2022-10-10T03:36:16.892Z,13.52
2022-10-10T03:38:43.568Z,13.51
2022-10-10T03:41:10.386Z,13.48
2022-10-10T03:43:37.035Z,13.47
2022-10-10T03:46:04.007Z,13.47
2022-10-10T03:48:30.672Z,13.46
2022-10-10T03:50:57.590Z,13.44
2022-10-10T03:53:24.266Z,13.44
2022-10-10T03:55:50.996Z,13.42
2022-10-10T03:58:21.521Z,13.39
2022-10-10T04:01:02.845Z,13.36
2022-10-10T04:03:31.509Z,13.35
2022-10-10T04:05:58.273Z,13.34
2022-10-10T04:08:25.514Z,13.31
2022-10-10T04:10:53.329Z,13.30
2022-10-10T04:13:20.874Z,13.29
2022-10-10T04:15:51.534Z,13.27
2022-10-10T04:18:19.114Z,13.25
2022-10-10T04:20:46.046Z,13.25
2022-10-10T04:23:12.773Z,13.24
2022-10-10T04:25:39.554Z,13.25
2022-10-10T04:28:06.269Z,13.23
2022-10-10T04:30:34.623Z,13.22
2022-10-10T04:33:01.540Z,13.21
2022-10-10T04:35:28.270Z,13.19
2022-10-10T04:37:54.967Z,13.19
2022-10-10T04:40:26.437Z,13.17
2022-10-10T04:42:55.130Z,13.16
2022-10-10T04:45:22.801Z,13.16
2022-10-10T04:47:49.534Z,13.15
2022-10-10T04:50:16.215Z,13.14
2022-10-10T04:52:42.922Z,13.14
2022-10-10T04:55:09.654Z,13.13
2022-10-10T04:57:36.444Z,13.11
2022-10-10T05:00:04.779Z,13.11
2022-10-10T05:02:31.759Z,13.11
2022-10-10T05:04:58.595Z,13.10
2022-10-10T05:07:25.279Z,13.09
2022-10-10T05:09:51.890Z,13.10
2022-10-10T05:12:18.787Z,13.08
2022-10-10T05:14:48.171Z,13.09
2022-10-10T05:17:15.411Z,13.08
2022-10-10T05:19:42.652Z,13.08
2022-10-10T05:22:09.598Z,12.92
2022-10-10T05:24:37.186Z,12.61
2022-10-10T05:27:04.160Z,12.38
2022-10-10T05:29:30.788Z,12.23
2022-10-10T05:31:57.560Z,12.09
2022-10-10T05:34:24.261Z,11.94
2022-10-10T05:36:50.988Z,11.77
2022-10-10T05:39:17.655Z,11.57
2022-10-10T05:41:44.416Z,11.46
2022-10-10T05:44:11.273Z,11.33
2022-10-10T05:46:38.007Z,11.32
2022-10-10T05:49:04.692Z,11.30
2022-10-10T05:51:31.468Z,11.27
2022-10-10T05:53:58.163Z,11.23
2022-10-10T05:56:25.217Z,11.27
2022-10-10T05:58:51.859Z,11.26
2022-10-10T06:01:18.758Z,11.26
2022-10-10T06:03:45.551Z,11.30
2022-10-10T06:06:12.268Z,11.30
2022-10-10T06:08:38.928Z,11.28
2022-10-10T06:11:11.240Z,11.28
2022-10-10T06:13:38.809Z,11.33
2022-10-10T06:16:05.543Z,11.37
2022-10-10T06:18:32.263Z,11.37
2022-10-10T06:21:07.230Z,11.34
2022-10-10T06:23:34.440Z,11.30
2022-10-10T06:26:01.125Z,11.33
2022-10-10T06:28:27.979Z,11.35
2022-10-10T06:30:54.808Z,11.39
2022-10-10T06:33:21.522Z,11.38
2022-10-10T06:35:49.295Z,11.37
2022-10-10T06:38:16.898Z,11.31
2022-10-10T06:40:43.705Z,11.28
2022-10-10T06:43:13.688Z,11.28
2022-10-10T06:45:43.340Z,11.34
2022-10-10T06:48:13.798Z,11.38
2022-10-10T06:50:40.564Z,11.47
2022-10-10T06:53:07.419Z,11.52
2022-10-10T06:55:34.260Z,11.57
2022-10-10T06:58:00.932Z,11.69
2022-10-10T07:00:27.708Z,11.79
2022-10-10T07:02:54.454Z,11.91
2022-10-10T07:05:21.225Z,11.96
2022-10-10T07:07:47.963Z,11.99
2022-10-10T07:10:15.608Z,12.05
2022-10-10T07:12:45.010Z,12.15
2022-10-10T07:15:12.467Z,12.24
2022-10-10T07:17:39.515Z,12.31
2022-10-10T07:20:06.738Z,12.40
2022-10-10T07:22:33.823Z,12.50
2022-10-10T07:25:00.615Z,12.57
2022-10-10T07:27:27.374Z,12.68
2022-10-10T07:29:54.266Z,12.78
2022-10-10T07:32:20.991Z,12.87
2022-10-10T07:34:47.699Z,12.99
2022-10-10T07:37:14.389Z,13.13
2022-10-10T07:39:41.111Z,13.22
2022-10-10T07:42:07.750Z,13.31
2022-10-10T07:44:34.908Z,13.44
2022-10-10T07:47:01.963Z,13.52
2022-10-10T07:49:29.224Z,13.60
2022-10-10T07:52:00.507Z,13.69
2022-10-10T07:54:29.045Z,13.77
2022-10-10T07:56:55.988Z,13.86
2022-10-10T07:59:23.453Z,13.99
2022-10-10T08:01:50.853Z,14.08
2022-10-10T08:04:18.011Z,14.20
2022-10-10T08:06:44.769Z,14.30
2022-10-10T08:09:11.546Z,14.48
2022-10-10T08:11:38.287Z,14.75
2022-10-10T08:14:04.952Z,15.07
2022-10-10T08:16:31.689Z,15.41
2022-10-10T08:18:58.791Z,15.74
2022-10-10T08:21:25.817Z,16.00
2022-10-10T08:23:52.461Z,16.27
2022-10-10T08:26:20.206Z,16.50
2022-10-10T08:28:48.605Z,16.67
2022-10-10T08:31:18.397Z,16.82
2022-10-10T08:33:46.295Z,16.97
2022-10-10T08:36:23.358Z,17.10
2022-10-10T08:38:52.564Z,17.19
2022-10-10T08:41:28.380Z,17.28
2022-10-10T08:43:58.754Z,17.39
2022-10-10T08:46:58.157Z,17.50
2022-10-10T08:49:34.285Z,17.61
2022-10-10T08:52:22.594Z,17.73
2022-10-10T08:54:49.841Z,17.82
2022-10-10T08:57:25.179Z,17.90
2022-10-10T08:59:57.402Z,17.97
2022-10-10T09:02:50.062Z,18.04
2022-10-10T09:05:24.332Z,18.14
2022-10-10T09:08:17.964Z,18.24
2022-10-10T09:10:54.583Z,18.43
2022-10-10T09:13:21.662Z,18.61
2022-10-10T09:15:58.027Z,18.76
2022-10-10T09:18:27.883Z,18.86
2022-10-10T09:21:00.584Z,18.94
2022-10-10T09:23:48.889Z,18.96
2022-10-10T09:26:21.487Z,18.99
2022-10-10T09:29:00.500Z,19.01
2022-10-10T09:31:40.494Z,19.08
2022-10-10T09:34:16.011Z,19.20
2022-10-10T09:36:43.102Z,19.31
2022-10-10T09:39:15.684Z,19.44
2022-10-10T09:41:46.658Z,19.53
2022-10-10T09:44:14.467Z,19.63
2022-10-10T09:46:41.219Z,19.72
2022-10-10T09:49:08.065Z,19.77
2022-10-10T09:51:34.787Z,19.80
2022-10-10T09:54:01.730Z,19.84
2022-10-10T09:56:32.129Z,19.91
2022-10-10T09:58:58.763Z,20.04
2022-10-10T10:01:28.841Z,20.00
2022-10-10T10:04:29.765Z,20.06
2022-10-10T10:07:06.419Z,20.10
2022-10-10T10:09:33.919Z,20.15
2022-10-10T10:12:01.390Z,20.18
2022-10-10T10:14:36.377Z,20.20
2022-10-10T10:17:08.909Z,20.25
2022-10-10T10:19:41.346Z,20.31
2022-10-10T10:22:26.818Z,20.36
2022-10-10T10:24:54.027Z,20.45
2022-10-10T10:27:23.484Z,20.53
2022-10-10T10:29:52.766Z,20.63
2022-10-10T10:32:22.249Z,20.71
2022-10-10T10:35:10.770Z,20.73
2022-10-10T10:37:51.530Z,20.60
2022-10-10T10:40:30.112Z,20.65
2022-10-10T10:43:02.780Z,20.77
2022-10-10T10:45:35.295Z,20.91
2022-10-10T10:48:15.759Z,21.05
2022-10-10T10:50:52.990Z,21.14
2022-10-10T10:53:40.946Z,21.18
2022-10-10T10:56:13.537Z,21.25
2022-10-10T11:01:56.630Z,21.49
2022-10-10T11:05:18.551Z,21.55
2022-10-10T11:07:53.002Z,21.67
2022-10-10T11:10:34.505Z,21.74
2022-10-10T11:13:07.455Z,21.82
2022-10-10T11:16:04.795Z,21.80
2022-10-10T11:18:31.285Z,21.91
2022-10-10T11:21:06.393Z,21.93
2022-10-10T11:23:50.389Z,21.97
2022-10-10T11:26:20.472Z,21.90
2022-10-10T11:28:50.395Z,21.95
2022-10-10T11:31:30.946Z,21.95
2022-10-10T11:33:59.993Z,21.95
2022-10-10T11:36:29.803Z,21.94
2022-10-10T11:39:15.506Z,21.92
2022-10-10T11:41:53.647Z,21.92
2022-10-10T11:44:46.708Z,21.87
2022-10-10T11:47:21.471Z,21.81
2022-10-10T11:50:00.445Z,21.85
2022-10-10T11:52:34.909Z,21.87
2022-10-10T11:55:11.355Z,21.97
2022-10-10T11:57:54.932Z,22.08
2022-10-10T12:00:21.817Z,22.13
2022-10-10T12:02:48.634Z,22.23
2022-10-10T12:05:27.073Z,22.23
2022-10-10T12:07:56.735Z,22.33
2022-10-10T12:10:32.674Z,22.41
2022-10-10T12:13:33.285Z,22.52
2022-10-10T12:16:13.186Z,22.51
2022-10-10T12:18:41.554Z,22.49
2022-10-10T12:21:16.965Z,22.52
2022-10-10T12:23:48.330Z,22.54
2022-10-10T12:26:20.751Z,22.62
2022-10-10T12:29:06.610Z,22.68
2022-10-10T12:31:35.632Z,22.85
2022-10-10T12:34:04.893Z,23.00
2022-10-10T12:36:31.687Z,23.14
2022-10-10T12:39:01.927Z,23.12
2022-10-10T12:41:50.155Z,23.27
2022-10-10T12:44:22.934Z,23.24
2022-10-10T12:47:15.761Z,23.27
2022-10-10T12:49:49.655Z,23.24
2022-10-10T12:52:28.714Z,23.10
2022-10-10T12:55:06.698Z,22.81
2022-10-10T12:57:40.801Z,22.79
2022-10-10T13:00:13.443Z,22.77
2022-10-10T13:02:42.990Z,22.75
2022-10-10T13:05:11.929Z,22.96
2022-10-10T13:07:38.832Z,23.19
2022-10-10T13:10:16.174Z,23.28
2022-10-10T13:12:42.911Z,23.41
2022-10-10T13:15:20.421Z,23.55
2022-10-10T13:17:47.157Z,23.61
2022-10-10T13:20:32.026Z,23.47
2022-10-10T13:22:59.182Z,23.39
2022-10-10T13:25:26.500Z,23.23
2022-10-10T13:27:53.304Z,23.19
2022-10-10T13:30:22.080Z,23.16
2022-10-10T13:32:49.598Z,23.12
2022-10-10T13:35:20.542Z,22.98
2022-10-10T13:37:57.102Z,23.04
2022-10-10T13:40:24.572Z,23.11
2022-10-10T13:42:51.596Z,23.03
2022-10-10T13:45:30.164Z,23.10
2022-10-10T13:48:00.321Z,23.20
2022-10-10T13:50:42.355Z,23.22
2022-10-10T13:53:27.391Z,23.21
2022-10-10T13:56:12.382Z,23.17
2022-10-10T13:58:41.995Z,23.13
2022-10-10T14:01:27.370Z,23.04
2022-10-10T14:04:00.440Z,22.93
2022-10-10T14:06:27.929Z,22.89
2022-10-10T14:08:57.982Z,22.98
2022-10-10T14:11:26.722Z,23.21
2022-10-10T14:14:06.452Z,23.35
2022-10-10T14:16:33.223Z,23.41
2022-10-10T14:18:59.916Z,23.35
2022-10-10T14:21:26.651Z,23.13
2022-10-10T14:23:53.343Z,22.91
2022-10-10T14:26:21.522Z,22.83
2022-10-10T14:28:48.424Z,22.81
2022-10-10T14:31:15.494Z,22.85
2022-10-10T14:33:42.230Z,22.84
2022-10-10T14:36:11.194Z,22.79
2022-10-10T14:38:38.857Z,22.77
2022-10-10T14:41:06.326Z,22.70
2022-10-10T14:43:33.606Z,22.59
2022-10-10T14:46:02.111Z,22.68
2022-10-10T14:48:28.977Z,22.80
2022-10-10T14:50:55.963Z,22.94
2022-10-10T14:53:22.779Z,23.11
2022-10-10T14:55:53.825Z,23.29
2022-10-10T14:58:22.952Z,23.31
2022-10-10T15:00:51.347Z,23.14
2022-10-10T15:03:18.129Z,23.22
2022-10-10T15:05:44.867Z,23.32
2022-10-10T15:08:16.363Z,23.30
2022-10-10T15:10:43.499Z,23.34
2022-10-10T15:13:11.433Z,23.24
2022-10-10T15:15:38.363Z,23.05
2022-10-10T15:18:05.396Z,22.88
2022-10-10T15:20:32.120Z,22.74
2022-10-10T15:23:00.627Z,22.58
2022-10-10T15:25:33.115Z,22.44
2022-10-10T15:28:02.005Z,22.30
2022-10-10T15:30:28.822Z,22.03
2022-10-10T15:32:55.554Z,21.85
2022-10-10T15:35:24.323Z,21.79
2022-10-10T15:37:51.119Z,21.72
2022-10-10T15:40:23.281Z,21.60
2022-10-10T15:42:50.860Z,21.54
2022-10-10T15:45:31.224Z,21.46
2022-10-10T15:48:05.223Z,21.37
2022-10-10T15:50:34.329Z,21.15
2022-10-10T15:53:01.099Z,21.05
2022-10-10T15:55:27.836Z,20.97
2022-10-10T15:57:54.615Z,20.96
2022-10-10T16:00:21.342Z,20.92
2022-10-10T16:02:48.070Z,20.89
2022-10-10T16:05:14.834Z,20.85
2022-10-10T16:07:47.521Z,20.81
2022-10-10T16:10:14.766Z,20.77
2022-10-10T16:12:41.471Z,20.71
2022-10-10T16:15:08.789Z,20.66
2022-10-10T16:17:35.549Z,20.61
2022-10-10T16:20:02.353Z,20.56
2022-10-10T16:22:29.019Z,20.51
2022-10-10T16:27:43.608Z,20.40
2022-10-10T16:30:11.329Z,20.35
2022-10-10T16:32:42.054Z,20.30
2022-10-10T16:35:10.127Z,20.19
2022-10-10T16:37:36.794Z,20.10
2022-10-10T16:40:04.180Z,20.04
2022-10-10T16:42:30.943Z,19.99
2022-10-10T16:44:57.700Z,19.99
2022-10-10T16:47:24.426Z,19.97
2022-10-10T16:49:51.111Z,19.90
2022-10-10T16:52:17.810Z,19.81
2022-10-10T16:54:46.901Z,19.79
2022-10-10T16:57:17.060Z,19.78
2022-10-10T16:59:43.784Z,19.77
2022-10-10T17:02:11.684Z,19.77
2022-10-10T17:04:38.349Z,19.77
2022-10-10T17:07:05.099Z,19.71
2022-10-10T17:09:31.795Z,19.67
2022-10-10T17:11:58.539Z,19.65
2022-10-10T17:14:25.262Z,19.64
2022-10-10T17:17:12.247Z,19.59
2022-10-10T17:19:38.762Z,19.54
2022-10-10T17:22:05.386Z,19.55
2022-10-10T17:24:32.112Z,19.48
2022-10-10T17:26:58.795Z,19.41
2022-10-10T17:29:25.504Z,19.42
2022-10-10T17:31:52.228Z,19.40
2022-10-10T17:34:19.315Z,19.37
2022-10-10T17:36:45.952Z,19.33
2022-10-10T17:39:12.677Z,19.34
2022-10-10T17:41:39.486Z,19.37
2022-10-10T17:44:10.417Z,19.38
2022-10-10T17:46:37.973Z,19.42
2022-10-10T17:49:06.238Z,19.44
2022-10-10T17:51:34.211Z,19.46
2022-10-10T17:54:01.612Z,19.48
2022-10-10T17:56:28.601Z,19.50
2022-10-10T17:58:55.338Z,19.51
2022-10-10T18:01:22.725Z,19.52
2022-10-10T18:03:50.059Z,19.54
2022-10-10T18:06:20.679Z,19.54
2022-10-10T18:08:51.882Z,19.56
2022-10-10T18:11:23.655Z,19.55
2022-10-10T18:13:51.020Z,19.57
2022-10-10T18:16:20.399Z,19.56
2022-10-10T18:18:51.059Z,19.57
2022-10-10T18:21:21.020Z,19.58
2022-10-10T18:23:48.336Z,19.58
2022-10-10T18:26:17.647Z,19.58
2022-10-10T18:28:44.599Z,19.59
2022-10-10T18:31:33.299Z,19.59
2022-10-10T18:34:01.117Z,19.58
2022-10-10T18:36:31.162Z,19.58
2022-10-10T18:38:59.533Z,19.57
2022-10-10T18:41:34.591Z,19.57
2022-10-10T18:44:08.024Z,19.56
2022-10-10T18:46:35.483Z,19.55
2022-10-10T18:49:04.543Z,19.55
2022-10-10T18:51:31.419Z,19.55
2022-10-10T18:54:03.931Z,19.53
2022-10-10T18:56:32.515Z,19.53
2022-10-10T18:59:03.487Z,19.51
2022-10-10T19:01:35.236Z,19.52
2022-10-10T19:04:03.885Z,19.52
2022-10-10T19:06:30.978Z,19.51
2022-10-10T19:08:59.223Z,19.50
2022-10-10T19:11:29.763Z,19.50
2022-10-10T19:13:58.780Z,19.48
2022-10-10T19:16:25.653Z,19.49
2022-10-10T19:18:56.324Z,19.47
2022-10-10T19:21:25.383Z,19.47
2022-10-10T19:23:52.046Z,19.46
2022-10-10T19:26:18.809Z,19.45
2022-10-10T19:28:45.558Z,19.44
2022-10-10T19:31:17.293Z,19.42
2022-10-10T19:33:44.899Z,19.44
2022-10-10T19:36:12.439Z,19.43
2022-10-10T19:38:41.286Z,19.43
2022-10-10T19:41:13.476Z,19.42
2022-10-10T19:43:41.276Z,19.42
2022-10-10T19:46:11.190Z,19.40
2022-10-10T19:48:38.017Z,19.40
2022-10-10T19:51:09.908Z,19.38
2022-10-10T19:53:38.003Z,19.37
2022-10-10T19:56:11.099Z,19.37
2022-10-10T19:58:46.006Z,19.37
2022-10-10T20:01:16.913Z,19.36
2022-10-10T20:03:44.421Z,19.36
2022-10-10T20:06:11.184Z,19.36
2022-10-10T20:08:38.363Z,19.36
2022-10-10T20:11:06.006Z,19.33
2022-10-10T20:13:33.094Z,19.32
2022-10-10T20:16:03.756Z,19.31
2022-10-10T20:18:33.360Z,19.30
2022-10-10T20:21:00.343Z,19.30
2022-10-10T20:23:27.085Z,19.28
2022-10-10T20:25:53.900Z,19.27
2022-10-10T20:28:21.571Z,19.24
2022-10-10T20:30:50.620Z,19.23
2022-10-10T20:33:19.139Z,19.22
2022-10-10T20:35:46.888Z,19.20
2022-10-10T20:38:14.429Z,19.16
2022-10-10T20:40:43.055Z,19.14
2022-10-10T20:43:12.057Z,19.12
2022-10-10T20:45:39.974Z,19.10
2022-10-10T20:48:07.679Z,19.08
2022-10-10T20:50:35.905Z,19.06
2022-10-10T20:53:02.638Z,19.04
2022-10-10T20:55:29.676Z,19.03
2022-10-10T20:57:56.432Z,19.00
2022-10-10T21:00:23.079Z,18.98
2022-10-10T21:02:49.840Z,18.97
2022-10-10T21:05:16.740Z,18.95
2022-10-10T21:07:45.867Z,18.94
2022-10-10T21:10:12.551Z,18.93
2022-10-10T21:12:39.299Z,18.90
2022-10-10T21:15:06.538Z,18.89
2022-10-10T21:17:33.463Z,18.88
2022-10-10T21:20:00.459Z,18.86
2022-10-10T21:22:27.177Z,18.84
2022-10-10T21:24:53.972Z,18.83
2022-10-10T21:27:20.784Z,18.84
2022-10-10T21:29:47.787Z,18.82
2022-10-10T21:32:14.505Z,18.80
2022-10-10T21:34:41.156Z,18.79
2022-10-10T21:37:07.871Z,18.77
2022-10-10T21:39:34.991Z,18.77
2022-10-10T21:42:02.435Z,18.75
2022-10-10T21:44:29.094Z,18.73
2022-10-10T21:46:55.786Z,18.72
2022-10-10T21:49:22.573Z,18.71
2022-10-10T21:51:49.257Z,18.68
2022-10-10T21:54:16.138Z,18.67
2022-10-10T21:56:42.825Z,18.66
2022-10-10T21:59:10.807Z,18.64
2022-10-10T22:01:37.762Z,18.63
2022-10-10T22:04:04.862Z,18.62
2022-10-10T22:06:32.147Z,18.61
2022-10-10T22:09:00.516Z,18.58
2022-10-10T22:11:28.495Z,18.57
2022-10-10T22:13:55.295Z,18.57
2022-10-10T22:16:22.701Z,18.56
2022-10-10T22:18:54.358Z,18.54
2022-10-10T22:21:21.106Z,18.55
2022-10-10T22:23:47.899Z,18.52
2022-10-10T22:26:16.742Z,18.49
2022-10-10T22:28:44.296Z,18.48
2022-10-10T22:31:13.402Z,18.46
2022-10-10T22:33:40.100Z,18.44
2022-10-10T22:36:08.035Z,18.42
2022-10-10T22:38:43.788Z,18.39
2022-10-10T22:41:11.406Z,18.37
2022-10-10T22:43:38.293Z,18.35
2022-10-10T22:46:05.654Z,18.32
2022-10-10T22:48:32.727Z,18.30
2022-10-10T22:51:08.195Z,18.28
2022-10-10T22:53:35.019Z,18.26
2022-10-10T22:56:02.118Z,18.24
2022-10-10T22:58:29.099Z,18.22
2022-10-10T23:00:55.829Z,18.19
2022-10-10T23:03:22.564Z,18.16
2022-10-10T23:05:49.216Z,18.14
2022-10-10T23:08:15.942Z,18.12
2022-10-10T23:10:42.634Z,18.11
2022-10-10T23:13:09.419Z,18.08
2022-10-10T23:15:36.113Z,18.04
2022-10-10T23:18:02.882Z,18.02
2022-10-10T23:20:29.576Z,18.01
2022-10-10T23:22:56.728Z,17.98
2022-10-10T23:25:24.056Z,17.96
2022-10-10T23:27:50.839Z,17.95
2022-10-10T23:30:17.979Z,17.93
2022-10-10T23:32:44.776Z,17.91
2022-10-10T23:35:11.790Z,17.89
2022-10-10T23:37:38.556Z,17.86
2022-10-10T23:40:05.811Z,17.85
2022-10-10T23:42:32.895Z,17.84
2022-10-10T23:44:59.576Z,17.81
2022-10-10T23:47:26.464Z,17.79
2022-10-10T23:49:53.157Z,17.78
2022-10-10T23:52:19.895Z,17.77
2022-10-10T23:54:46.604Z,17.76
2022-10-10T23:57:13.370Z,17.74
2022-10-10T23:59:40.147Z,17.72
